»·PEaware :: N2004ML 1S5-KYKM

N2004ML :: 1S5-KYKM

FLIGHT INFORMATION

Flight Status: Arrived
Operator: Privately registered:
United States
More flights under this callsign
Pilot: Anonymous 32956 (32956)
Aircraft: CESSNA 172 SKYHAWK
(C172)
More flights by this aircraft type
Origin: 1S5 Sunnyside Mun
United States
Destination: KYKM Yakima Air Term/Mcallister
United States
More flights between these airports :: More routes between these airports
Route:
File this flight plan on PilotEdge
Remarks:
Altitude:
(Current/Filed)
7,300ft
Speed:
(Current/Filed)
140kts
Departed: 14-Jan-21 01:00 PM
Arrived: 14-Jan-21 02:00 PM
Distance/Time
Traveled:
28nm/1:00
Distance/Time
To Go:
Arrived

Flight Plot

Page will automatically refresh every two minutes.

Flight plan parsing failed; only flown route is shown


Map Options




Map Legend


Flown Route
Filed Route
Departure Airport
Arrival Airport
Navaid (VOR, NDB)
Fix

Horizontal Profiles

Position Reports

Time Latitude Longitude Heading Altitude Ground
Speed
14-Jan-21 12:46 46.326197 -119.967484 180 769ft 0kts
14-Jan-21 12:47 46.326197 -119.967484 180 769ft 0kts
14-Jan-21 12:48 46.326197 -119.967484 180 769ft 0kts
14-Jan-21 12:49 46.326197 -119.967484 180 769ft 0kts
14-Jan-21 12:50 46.326197 -119.967484 180 769ft 0kts
14-Jan-21 12:51 46.326197 -119.967484 180 769ft 0kts
14-Jan-21 12:52 46.326197 -119.967484 180 769ft 0kts
14-Jan-21 12:53 46.326114 -119.967524 220 769ft 3kts
14-Jan-21 12:54 46.326344 -119.967562 50 770ft 6kts
14-Jan-21 12:55 46.326739 -119.966333 86 771ft 5kts
14-Jan-21 12:56 46.326702 -119.964975 89 771ft 9kts
14-Jan-21 12:57 46.326799 -119.964385 32 771ft 0kts
14-Jan-21 12:58 46.327016 -119.964349 347 771ft 5kts
14-Jan-21 12:59 46.327108 -119.968177 280 789ft 59kts
14-Jan-21 13:00 46.326694 -119.977527 292 1317ft 47kts
14-Jan-21 13:01 46.330153 -119.983000 303 1868ft 34kts
14-Jan-21 13:02 46.332052 -119.988366 309 2362ft 25kts
14-Jan-21 13:03 46.333423 -119.991797 305 2756ft 20kts
14-Jan-21 13:04 46.335168 -119.995643 305 3004ft 43kts
14-Jan-21 13:05 46.340376 -120.006541 305 2966ft 77kts
14-Jan-21 13:06 46.345576 -120.017276 305 3358ft 55kts
14-Jan-21 13:07 46.349661 -120.025884 305 3711ft 54kts
14-Jan-21 13:08 46.353661 -120.034339 305 4036ft 55kts
14-Jan-21 13:09 46.357788 -120.043038 305 4333ft 57kts
14-Jan-21 13:10 46.361955 -120.051807 305 4590ft 61kts
14-Jan-21 13:11 46.366495 -120.061292 305 4817ft 62kts
14-Jan-21 13:12 46.371542 -120.071770 305 4909ft 72kts
14-Jan-21 13:13 46.377025 -120.083057 305 4980ft 71kts
14-Jan-21 13:14 46.381996 -120.093345 305 5119ft 73kts
14-Jan-21 13:15 46.386016 -120.101656 305 5219ft 73kts
14-Jan-21 13:16 46.390875 -120.111734 305 5444ft 66kts
14-Jan-21 13:17 46.395679 -120.121702 305 5651ft 62kts
14-Jan-21 13:18 46.400350 -120.131626 304 5766ft 68kts
14-Jan-21 13:19 46.405652 -120.142428 306 5818ft 69kts
14-Jan-21 13:20 46.410232 -120.151937 305 6092ft 60kts
14-Jan-21 13:21 46.414384 -120.161152 305 6292ft 62kts
14-Jan-21 13:22 46.418298 -120.170139 299 6550ft 56kts
14-Jan-21 13:23 46.421075 -120.180412 299 6644ft 70kts
14-Jan-21 13:24 46.425423 -120.192237 298 6644ft 74kts
14-Jan-21 13:25 46.429663 -120.204301 303 6666ft 73kts
14-Jan-21 13:26 46.432547 -120.211757 298 6729ft 78kts
14-Jan-21 13:27 46.436628 -120.223093 286 7147ft 52kts
14-Jan-21 13:28 46.439087 -120.233662 284 7303ft 65kts
14-Jan-21 13:29 46.443390 -120.244676 307 7513ft 61kts
14-Jan-21 13:30 46.448226 -120.254380 302 7624ft 71kts
14-Jan-21 13:31 46.455587 -120.262822 321 7686ft 81kts
14-Jan-21 13:33 46.464065 -120.271388 319 7553ft 95kts
14-Jan-21 13:34 46.473491 -120.280679 320 7404ft 97kts
14-Jan-21 13:35 46.481852 -120.290875 311 7272ft 90kts
14-Jan-21 13:36 46.488679 -120.301101 311 7068ft 84kts
14-Jan-21 13:37 46.495705 -120.310313 313 6745ft 82kts
14-Jan-21 13:38 46.501593 -120.318939 308 6552ft 73kts
14-Jan-21 13:39 46.507684 -120.328050 309 6281ft 70kts
14-Jan-21 13:40 46.512966 -120.336276 308 6081ft 70kts
14-Jan-21 13:41 46.517625 -120.344814 300 5811ft 61kts
14-Jan-21 13:42 46.521083 -120.353354 298 5531ft 61kts
14-Jan-21 13:43 46.524456 -120.362499 294 5201ft 65kts
14-Jan-21 13:44 46.527712 -120.372680 293 4845ft 67kts
14-Jan-21 13:45 46.529941 -120.380119 293 4681ft 56kts
14-Jan-21 13:46 46.530405 -120.381788 290 4594ft 63kts
14-Jan-21 13:47 46.532647 -120.393385 286 4104ft 77kts
14-Jan-21 13:48 46.535164 -120.405077 290 3793ft 70kts
14-Jan-21 13:48 46.537751 -120.414543 293 3442ft 72kts
14-Jan-21 13:49 46.540295 -120.424880 289 3179ft 63kts
14-Jan-21 13:51 46.543175 -120.438024 287 2858ft 85kts
14-Jan-21 13:51 46.545563 -120.449972 288 2544ft 93kts
14-Jan-21 13:52 46.548968 -120.464310 291 2297ft 88kts
14-Jan-21 13:53 46.552217 -120.477593 290 2093ft 85kts
14-Jan-21 13:54 46.555386 -120.489934 290 1889ft 77kts
14-Jan-21 13:55 46.558526 -120.502892 290 1552ft 75kts
14-Jan-21 13:56 46.561472 -120.514627 290 1347ft 67kts
14-Jan-21 13:57 46.564050 -120.525606 291 1148ft 64kts
14-Jan-21 13:58 46.566554 -120.535540 293 1055ft 46kts
14-Jan-21 13:59 46.567831 -120.539496 329 1062ft 12kts
14-Jan-21 14:00 46.568591 -120.539391 11 1062ft 5kts
14-Jan-21 14:01 46.569123 -120.539290 10 1062ft 4kts
14-Jan-21 14:02 46.569497 -120.539375 275 1062ft 0kts
14-Jan-21 14:03 46.569354 -120.539655 223 1063ft 0kts
14-Jan-21 14:04 46.569354 -120.539655 223 1063ft 0kts
14-Jan-21 14:05 46.569354 -120.539655 223 1063ft 0kts
14-Jan-21 14:06 46.569354 -120.539655 223 1063ft 0kts
14-Jan-21 14:07 46.569354 -120.539655 223 1063ft 0kts
14-Jan-21 14:08 46.569354 -120.539655 223 1063ft 0kts
14-Jan-21 14:09 46.569354 -120.539655 223 1063ft 0kts
14-Jan-21 14:10 46.569354 -120.539655 223 1063ft 0kts
14-Jan-21 14:11 46.569354 -120.539655 223 1063ft 0kts
14-Jan-21 14:12 46.569354 -120.539655 223 1063ft 0kts
14-Jan-21 14:13 46.569354 -120.539655 223 1063ft 0kts

Navigation Log

Ident Type
Flight plan parsing failed, navigation log unavailable